sensor_id;sensor_type;location;lat;lon;timestamp;P1;durP1;ratioP1;P2;durP2;ratioP2
12703;SDS011;6416;52.182;7.650;2023-07-02T00:01:49;5.65;;;4.40;;
12703;SDS011;6416;52.182;7.650;2023-07-02T00:04:15;5.35;;;4.40;;
12703;SDS011;6416;52.182;7.650;2023-07-02T00:06:47;5.63;;;4.10;;
12703;SDS011;6416;52.182;7.650;2023-07-02T00:09:13;7.32;;;4.88;;
12703;SDS011;6416;52.182;7.650;2023-07-02T00:11:41;6.28;;;4.32;;
12703;SDS011;6416;52.182;7.650;2023-07-02T00:14:08;4.90;;;4.47;;
12703;SDS011;6416;52.182;7.650;2023-07-02T00:16:52;5.13;;;4.63;;
12703;SDS011;6416;52.182;7.650;2023-07-02T00:19:17;6.65;;;4.82;;
12703;SDS011;6416;52.182;7.650;2023-07-02T00:21:43;7.35;;;4.93;;
12703;SDS011;6416;52.182;7.650;2023-07-02T00:24:08;5.88;;;4.40;;
12703;SDS011;6416;52.182;7.650;2023-07-02T00:26:34;6.90;;;5.05;;
12703;SDS011;6416;52.182;7.650;2023-07-02T00:29:00;6.00;;;4.10;;
12703;SDS011;6416;52.182;7.650;2023-07-02T00:31:25;8.38;;;5.13;;
12703;SDS011;6416;52.182;7.650;2023-07-02T00:33:51;10.68;;;5.40;;
12703;SDS011;6416;52.182;7.650;2023-07-02T00:36:17;6.95;;;4.97;;
12703;SDS011;6416;52.182;7.650;2023-07-02T00:38:46;7.65;;;5.40;;
12703;SDS011;6416;52.182;7.650;2023-07-02T00:41:13;5.50;;;5.00;;
12703;SDS011;6416;52.182;7.650;2023-07-02T00:43:38;8.57;;;4.85;;
12703;SDS011;6416;52.182;7.650;2023-07-02T00:46:04;7.05;;;4.63;;
12703;SDS011;6416;52.182;7.650;2023-07-02T00:48:30;6.00;;;4.90;;
12703;SDS011;6416;52.182;7.650;2023-07-02T00:50:56;4.88;;;4.25;;
12703;SDS011;6416;52.182;7.650;2023-07-02T00:53:22;6.70;;;4.80;;
12703;SDS011;6416;52.182;7.650;2023-07-02T00:55:47;4.88;;;4.47;;
12703;SDS011;6416;52.182;7.650;2023-07-02T00:58:13;4.70;;;4.28;;
12703;SDS011;6416;52.182;7.650;2023-07-02T01:00:38;6.00;;;5.13;;
12703;SDS011;6416;52.182;7.650;2023-07-02T01:03:04;5.10;;;4.53;;
12703;SDS011;6416;52.182;7.650;2023-07-02T01:05:29;6.15;;;4.90;;
12703;SDS011;6416;52.182;7.650;2023-07-02T01:07:55;6.32;;;4.28;;
12703;SDS011;6416;52.182;7.650;2023-07-02T01:10:20;5.90;;;4.40;;
12703;SDS011;6416;52.182;7.650;2023-07-02T01:12:46;6.90;;;4.13;;
12703;SDS011;6416;52.182;7.650;2023-07-02T01:15:12;5.93;;;4.07;;
12703;SDS011;6416;52.182;7.650;2023-07-02T01:17:38;6.32;;;3.92;;
12703;SDS011;6416;52.182;7.650;2023-07-02T01:20:04;4.88;;;4.35;;
12703;SDS011;6416;52.182;7.650;2023-07-02T01:22:31;7.40;;;4.45;;
12703;SDS011;6416;52.182;7.650;2023-07-02T01:24:57;5.70;;;4.53;;
12703;SDS011;6416;52.182;7.650;2023-07-02T01:27:22;3.85;;;3.47;;
12703;SDS011;6416;52.182;7.650;2023-07-02T01:29:51;5.97;;;4.35;;
12703;SDS011;6416;52.182;7.650;2023-07-02T01:32:17;6.05;;;4.35;;
12703;SDS011;6416;52.182;7.650;2023-07-02T01:34:42;5.82;;;4.00;;
12703;SDS011;6416;52.182;7.650;2023-07-02T01:37:08;4.50;;;4.10;;
12703;SDS011;6416;52.182;7.650;2023-07-02T01:39:33;7.35;;;4.30;;
12703;SDS011;6416;52.182;7.650;2023-07-02T01:42:09;5.35;;;4.05;;
12703;SDS011;6416;52.182;7.650;2023-07-02T01:44:38;7.03;;;4.32;;
12703;SDS011;6416;52.182;7.650;2023-07-02T01:47:04;4.35;;;3.95;;
12703;SDS011;6416;52.182;7.650;2023-07-02T01:49:30;4.97;;;4.00;;
12703;SDS011;6416;52.182;7.650;2023-07-02T01:51:56;5.32;;;3.92;;
12703;SDS011;6416;52.182;7.650;2023-07-02T01:54:23;4.32;;;3.92;;
12703;SDS011;6416;52.182;7.650;2023-07-02T01:56:50;6.53;;;3.97;;
12703;SDS011;6416;52.182;7.650;2023-07-02T01:59:15;4.40;;;4.00;;
12703;SDS011;6416;52.182;7.650;2023-07-02T02:01:41;5.32;;;3.65;;
12703;SDS011;6416;52.182;7.650;2023-07-02T02:04:07;5.07;;;3.90;;
12703;SDS011;6416;52.182;7.650;2023-07-02T02:06:33;4.10;;;3.60;;
12703;SDS011;6416;52.182;7.650;2023-07-02T02:08:59;5.68;;;4.53;;
12703;SDS011;6416;52.182;7.650;2023-07-02T02:11:24;4.00;;;3.60;;
12703;SDS011;6416;52.182;7.650;2023-07-02T02:13:50;4.18;;;3.65;;
12703;SDS011;6416;52.182;7.650;2023-07-02T02:16:15;5.28;;;4.05;;
12703;SDS011;6416;52.182;7.650;2023-07-02T02:18:41;6.72;;;3.90;;
12703;SDS011;6416;52.182;7.650;2023-07-02T02:21:06;7.25;;;3.80;;
12703;SDS011;6416;52.182;7.650;2023-07-02T02:23:32;7.35;;;4.45;;
12703;SDS011;6416;52.182;7.650;2023-07-02T02:25:57;8.43;;;4.70;;
12703;SDS011;6416;52.182;7.650;2023-07-02T02:28:23;10.02;;;5.85;;
12703;SDS011;6416;52.182;7.650;2023-07-02T02:30:48;7.90;;;5.38;;
12703;SDS011;6416;52.182;7.650;2023-07-02T02:33:14;8.30;;;5.00;;
12703;SDS011;6416;52.182;7.650;2023-07-02T02:35:40;10.93;;;5.18;;
12703;SDS011;6416;52.182;7.650;2023-07-02T02:38:05;9.35;;;5.45;;
12703;SDS011;6416;52.182;7.650;2023-07-02T02:40:31;7.70;;;5.45;;
12703;SDS011;6416;52.182;7.650;2023-07-02T02:42:56;5.43;;;4.90;;
12703;SDS011;6416;52.182;7.650;2023-07-02T02:45:22;7.68;;;5.38;;
12703;SDS011;6416;52.182;7.650;2023-07-02T02:47:47;5.82;;;4.50;;
12703;SDS011;6416;52.182;7.650;2023-07-02T02:50:13;7.95;;;5.00;;
12703;SDS011;6416;52.182;7.650;2023-07-02T02:52:39;6.55;;;4.82;;
12703;SDS011;6416;52.182;7.650;2023-07-02T02:55:05;9.05;;;5.00;;
12703;SDS011;6416;52.182;7.650;2023-07-02T02:57:32;5.88;;;4.30;;
12703;SDS011;6416;52.182;7.650;2023-07-02T02:59:58;6.72;;;4.88;;
12703;SDS011;6416;52.182;7.650;2023-07-02T03:02:24;8.05;;;4.88;;
12703;SDS011;6416;52.182;7.650;2023-07-02T03:04:49;7.28;;;4.55;;
12703;SDS011;6416;52.182;7.650;2023-07-02T03:07:15;7.07;;;4.65;;
12703;SDS011;6416;52.182;7.650;2023-07-02T03:09:41;6.35;;;4.70;;
12703;SDS011;6416;52.182;7.650;2023-07-02T03:12:07;6.95;;;5.00;;
12703;SDS011;6416;52.182;7.650;2023-07-02T03:14:32;9.48;;;4.95;;
12703;SDS011;6416;52.182;7.650;2023-07-02T03:16:58;8.65;;;5.28;;
12703;SDS011;6416;52.182;7.650;2023-07-02T03:19:24;7.88;;;4.45;;
12703;SDS011;6416;52.182;7.650;2023-07-02T03:21:49;7.15;;;4.57;;
12703;SDS011;6416;52.182;7.650;2023-07-02T03:24:15;8.50;;;5.32;;
12703;SDS011;6416;52.182;7.650;2023-07-02T03:26:40;6.50;;;4.60;;
12703;SDS011;6416;52.182;7.650;2023-07-02T03:29:06;5.88;;;4.50;;
12703;SDS011;6416;52.182;7.650;2023-07-02T03:31:32;6.00;;;4.45;;
12703;SDS011;6416;52.182;7.650;2023-07-02T03:33:57;7.85;;;5.35;;
12703;SDS011;6416;52.182;7.650;2023-07-02T03:36:23;6.50;;;4.35;;
12703;SDS011;6416;52.182;7.650;2023-07-02T03:38:48;6.15;;;4.53;;
12703;SDS011;6416;52.182;7.650;2023-07-02T03:41:14;8.00;;;5.18;;
12703;SDS011;6416;52.182;7.650;2023-07-02T03:43:39;7.55;;;5.30;;
12703;SDS011;6416;52.182;7.650;2023-07-02T03:46:04;7.13;;;5.30;;
12703;SDS011;6416;52.182;7.650;2023-07-02T03:48:30;8.23;;;4.85;;
12703;SDS011;6416;52.182;7.650;2023-07-02T03:50:55;7.97;;;5.10;;
12703;SDS011;6416;52.182;7.650;2023-07-02T03:53:21;7.40;;;5.03;;
12703;SDS011;6416;52.182;7.650;2023-07-02T03:55:46;7.70;;;4.93;;
12703;SDS011;6416;52.182;7.650;2023-07-02T03:58:12;7.95;;;5.13;;
12703;SDS011;6416;52.182;7.650;2023-07-02T04:00:37;7.47;;;5.28;;
12703;SDS011;6416;52.182;7.650;2023-07-02T04:03:03;7.57;;;5.47;;
12703;SDS011;6416;52.182;7.650;2023-07-02T04:05:28;8.38;;;5.07;;
12703;SDS011;6416;52.182;7.650;2023-07-02T04:07:54;7.10;;;5.43;;
12703;SDS011;6416;52.182;7.650;2023-07-02T04:10:19;7.68;;;5.68;;
12703;SDS011;6416;52.182;7.650;2023-07-02T04:12:45;8.68;;;5.45;;
12703;SDS011;6416;52.182;7.650;2023-07-02T04:15:10;6.35;;;4.90;;
12703;SDS011;6416;52.182;7.650;2023-07-02T04:17:36;8.65;;;5.30;;
12703;SDS011;6416;52.182;7.650;2023-07-02T04:20:01;7.03;;;5.05;;
12703;SDS011;6416;52.182;7.650;2023-07-02T04:22:27;10.90;;;6.32;;
12703;SDS011;6416;52.182;7.650;2023-07-02T04:24:53;12.70;;;5.50;;
12703;SDS011;6416;52.182;7.650;2023-07-02T04:27:18;10.15;;;5.03;;
12703;SDS011;6416;52.182;7.650;2023-07-02T04:29:44;10.07;;;5.57;;
12703;SDS011;6416;52.182;7.650;2023-07-02T04:32:09;10.32;;;5.50;;
12703;SDS011;6416;52.182;7.650;2023-07-02T04:34:35;8.57;;;5.70;;
12703;SDS011;6416;52.182;7.650;2023-07-02T04:37:00;10.77;;;5.90;;
12703;SDS011;6416;52.182;7.650;2023-07-02T04:39:26;8.98;;;5.95;;
12703;SDS011;6416;52.182;7.650;2023-07-02T04:41:51;9.02;;;5.63;;
12703;SDS011;6416;52.182;7.650;2023-07-02T04:44:17;9.82;;;5.28;;
12703;SDS011;6416;52.182;7.650;2023-07-02T04:46:42;7.88;;;5.82;;
12703;SDS011;6416;52.182;7.650;2023-07-02T04:49:08;8.65;;;5.85;;
12703;SDS011;6416;52.182;7.650;2023-07-02T04:51:33;8.82;;;5.40;;
12703;SDS011;6416;52.182;7.650;2023-07-02T04:53:59;8.57;;;5.05;;
12703;SDS011;6416;52.182;7.650;2023-07-02T04:56:24;9.60;;;5.50;;
12703;SDS011;6416;52.182;7.650;2023-07-02T04:58:50;8.43;;;5.57;;
12703;SDS011;6416;52.182;7.650;2023-07-02T05:01:15;8.73;;;5.60;;
12703;SDS011;6416;52.182;7.650;2023-07-02T05:03:41;8.32;;;5.20;;
12703;SDS011;6416;52.182;7.650;2023-07-02T05:06:06;8.57;;;5.63;;
12703;SDS011;6416;52.182;7.650;2023-07-02T05:08:31;14.52;;;5.32;;
12703;SDS011;6416;52.182;7.650;2023-07-02T05:10:57;7.20;;;5.10;;
12703;SDS011;6416;52.182;7.650;2023-07-02T05:13:22;8.60;;;5.47;;
12703;SDS011;6416;52.182;7.650;2023-07-02T05:15:48;8.60;;;5.22;;
12703;SDS011;6416;52.182;7.650;2023-07-02T05:18:13;8.80;;;5.38;;
12703;SDS011;6416;52.182;7.650;2023-07-02T05:20:39;10.45;;;5.90;;
12703;SDS011;6416;52.182;7.650;2023-07-02T05:23:04;8.35;;;5.95;;
12703;SDS011;6416;52.182;7.650;2023-07-02T05:25:30;9.43;;;5.80;;
12703;SDS011;6416;52.182;7.650;2023-07-02T05:27:56;12.98;;;6.32;;
12703;SDS011;6416;52.182;7.650;2023-07-02T05:30:21;12.32;;;6.10;;
12703;SDS011;6416;52.182;7.650;2023-07-02T05:32:46;9.20;;;5.72;;
12703;SDS011;6416;52.182;7.650;2023-07-02T05:35:12;9.40;;;5.93;;
12703;SDS011;6416;52.182;7.650;2023-07-02T05:37:38;12.23;;;6.40;;
12703;SDS011;6416;52.182;7.650;2023-07-02T05:40:03;11.00;;;6.15;;
12703;SDS011;6416;52.182;7.650;2023-07-02T05:42:29;9.95;;;6.38;;
12703;SDS011;6416;52.182;7.650;2023-07-02T05:44:55;6.70;;;4.93;;
12703;SDS011;6416;52.182;7.650;2023-07-02T05:47:20;9.32;;;5.65;;
12703;SDS011;6416;52.182;7.650;2023-07-02T05:49:45;9.10;;;5.72;;
12703;SDS011;6416;52.182;7.650;2023-07-02T05:52:11;11.02;;;6.45;;
12703;SDS011;6416;52.182;7.650;2023-07-02T05:54:40;11.70;;;5.65;;
12703;SDS011;6416;52.182;7.650;2023-07-02T05:57:06;11.93;;;6.07;;
12703;SDS011;6416;52.182;7.650;2023-07-02T05:59:31;12.52;;;6.38;;
12703;SDS011;6416;52.182;7.650;2023-07-02T06:01:56;7.75;;;5.82;;
12703;SDS011;6416;52.182;7.650;2023-07-02T06:04:22;8.98;;;5.88;;
12703;SDS011;6416;52.182;7.650;2023-07-02T06:06:47;11.10;;;5.85;;
12703;SDS011;6416;52.182;7.650;2023-07-02T06:09:13;12.32;;;6.03;;
12703;SDS011;6416;52.182;7.650;2023-07-02T06:11:38;12.77;;;6.63;;
12703;SDS011;6416;52.182;7.650;2023-07-02T06:14:04;10.70;;;6.07;;
12703;SDS011;6416;52.182;7.650;2023-07-02T06:16:29;10.07;;;6.32;;
12703;SDS011;6416;52.182;7.650;2023-07-02T06:18:55;9.35;;;6.07;;
12703;SDS011;6416;52.182;7.650;2023-07-02T06:21:20;13.20;;;7.00;;
12703;SDS011;6416;52.182;7.650;2023-07-02T06:23:46;11.35;;;6.63;;
12703;SDS011;6416;52.182;7.650;2023-07-02T06:26:11;13.27;;;6.35;;
12703;SDS011;6416;52.182;7.650;2023-07-02T06:28:37;10.43;;;6.43;;
12703;SDS011;6416;52.182;7.650;2023-07-02T06:31:03;13.23;;;6.32;;
12703;SDS011;6416;52.182;7.650;2023-07-02T06:33:29;11.05;;;6.25;;
12703;SDS011;6416;52.182;7.650;2023-07-02T06:35:54;10.95;;;6.30;;
12703;SDS011;6416;52.182;7.650;2023-07-02T06:38:20;10.90;;;6.43;;
12703;SDS011;6416;52.182;7.650;2023-07-02T06:40:45;12.57;;;6.53;;
12703;SDS011;6416;52.182;7.650;2023-07-02T06:43:11;13.32;;;6.72;;
12703;SDS011;6416;52.182;7.650;2023-07-02T06:45:36;11.20;;;6.32;;
12703;SDS011;6416;52.182;7.650;2023-07-02T06:48:02;10.98;;;6.20;;
12703;SDS011;6416;52.182;7.650;2023-07-02T06:50:27;11.55;;;6.25;;
12703;SDS011;6416;52.182;7.650;2023-07-02T06:52:52;9.23;;;6.43;;
12703;SDS011;6416;52.182;7.650;2023-07-02T06:55:18;9.48;;;5.90;;
12703;SDS011;6416;52.182;7.650;2023-07-02T06:57:44;9.18;;;5.90;;
12703;SDS011;6416;52.182;7.650;2023-07-02T07:00:13;11.50;;;6.85;;
12703;SDS011;6416;52.182;7.650;2023-07-02T07:02:39;11.68;;;6.57;;
12703;SDS011;6416;52.182;7.650;2023-07-02T07:05:05;12.35;;;6.38;;
12703;SDS011;6416;52.182;7.650;2023-07-02T07:07:31;11.10;;;6.13;;
12703;SDS011;6416;52.182;7.650;2023-07-02T07:09:56;11.65;;;6.20;;
12703;SDS011;6416;52.182;7.650;2023-07-02T07:12:22;9.50;;;5.90;;
12703;SDS011;6416;52.182;7.650;2023-07-02T07:14:47;10.32;;;6.65;;
12703;SDS011;6416;52.182;7.650;2023-07-02T07:17:13;10.70;;;6.03;;
12703;SDS011;6416;52.182;7.650;2023-07-02T07:19:38;8.68;;;6.22;;
12703;SDS011;6416;52.182;7.650;2023-07-02T07:22:04;12.23;;;6.93;;
12703;SDS011;6416;52.182;7.650;2023-07-02T07:24:29;9.98;;;6.45;;
12703;SDS011;6416;52.182;7.650;2023-07-02T07:26:55;11.10;;;6.35;;
12703;SDS011;6416;52.182;7.650;2023-07-02T07:29:21;11.45;;;6.10;;
12703;SDS011;6416;52.182;7.650;2023-07-02T07:31:47;9.07;;;5.90;;
12703;SDS011;6416;52.182;7.650;2023-07-02T07:34:12;7.90;;;5.47;;
12703;SDS011;6416;52.182;7.650;2023-07-02T07:36:38;9.68;;;5.55;;
12703;SDS011;6416;52.182;7.650;2023-07-02T07:39:03;9.65;;;6.50;;
12703;SDS011;6416;52.182;7.650;2023-07-02T07:41:29;9.63;;;5.85;;
12703;SDS011;6416;52.182;7.650;2023-07-02T07:43:54;9.25;;;6.07;;
12703;SDS011;6416;52.182;7.650;2023-07-02T07:46:20;13.75;;;5.78;;
12703;SDS011;6416;52.182;7.650;2023-07-02T07:48:45;9.25;;;5.80;;
12703;SDS011;6416;52.182;7.650;2023-07-02T07:51:11;8.63;;;5.25;;
12703;SDS011;6416;52.182;7.650;2023-07-02T07:53:39;10.05;;;5.47;;
12703;SDS011;6416;52.182;7.650;2023-07-02T07:56:05;7.38;;;5.10;;
12703;SDS011;6416;52.182;7.650;2023-07-02T07:58:30;11.50;;;6.10;;
12703;SDS011;6416;52.182;7.650;2023-07-02T08:00:56;7.90;;;5.47;;
12703;SDS011;6416;52.182;7.650;2023-07-02T08:03:21;9.23;;;5.60;;
12703;SDS011;6416;52.182;7.650;2023-07-02T08:05:47;9.60;;;5.60;;
12703;SDS011;6416;52.182;7.650;2023-07-02T08:08:12;8.45;;;5.10;;
12703;SDS011;6416;52.182;7.650;2023-07-02T08:10:38;7.22;;;5.20;;
12703;SDS011;6416;52.182;7.650;2023-07-02T08:13:03;8.07;;;5.35;;
12703;SDS011;6416;52.182;7.650;2023-07-02T08:15:29;8.25;;;5.40;;
12703;SDS011;6416;52.182;7.650;2023-07-02T08:17:54;9.15;;;5.53;;
12703;SDS011;6416;52.182;7.650;2023-07-02T08:20:20;7.85;;;5.63;;
12703;SDS011;6416;52.182;7.650;2023-07-02T08:22:45;8.55;;;5.55;;
12703;SDS011;6416;52.182;7.650;2023-07-02T08:25:11;8.30;;;5.05;;
12703;SDS011;6416;52.182;7.650;2023-07-02T08:27:36;6.95;;;4.82;;
12703;SDS011;6416;52.182;7.650;2023-07-02T08:30:02;7.78;;;5.07;;
12703;SDS011;6416;52.182;7.650;2023-07-02T08:32:27;7.22;;;5.03;;
12703;SDS011;6416;52.182;7.650;2023-07-02T08:34:53;7.32;;;5.40;;
12703;SDS011;6416;52.182;7.650;2023-07-02T08:37:20;7.90;;;5.13;;
12703;SDS011;6416;52.182;7.650;2023-07-02T08:39:46;11.40;;;5.32;;
12703;SDS011;6416;52.182;7.650;2023-07-02T08:42:13;7.63;;;5.45;;
12703;SDS011;6416;52.182;7.650;2023-07-02T08:44:39;6.97;;;4.47;;
12703;SDS011;6416;52.182;7.650;2023-07-02T08:47:05;7.95;;;5.15;;
12703;SDS011;6416;52.182;7.650;2023-07-02T08:49:31;10.45;;;5.47;;
12703;SDS011;6416;52.182;7.650;2023-07-02T08:51:56;8.57;;;5.38;;
12703;SDS011;6416;52.182;7.650;2023-07-02T08:54:22;8.35;;;5.53;;
12703;SDS011;6416;52.182;7.650;2023-07-02T08:56:48;7.53;;;5.00;;
12703;SDS011;6416;52.182;7.650;2023-07-02T08:59:13;8.55;;;5.03;;
12703;SDS011;6416;52.182;7.650;2023-07-02T09:01:48;6.20;;;4.50;;
12703;SDS011;6416;52.182;7.650;2023-07-02T09:04:16;8.02;;;5.05;;
12703;SDS011;6416;52.182;7.650;2023-07-02T09:06:41;11.43;;;5.57;;
12703;SDS011;6416;52.182;7.650;2023-07-02T09:09:07;9.43;;;4.60;;
12703;SDS011;6416;52.182;7.650;2023-07-02T09:11:32;7.03;;;5.05;;
12703;SDS011;6416;52.182;7.650;2023-07-02T09:13:59;12.45;;;5.70;;
12703;SDS011;6416;52.182;7.650;2023-07-02T09:18:55;6.78;;;4.78;;
12703;SDS011;6416;52.182;7.650;2023-07-02T09:21:21;6.68;;;4.90;;
12703;SDS011;6416;52.182;7.650;2023-07-02T09:23:46;6.63;;;4.55;;
12703;SDS011;6416;52.182;7.650;2023-07-02T09:26:21;9.10;;;5.40;;
12703;SDS011;6416;52.182;7.650;2023-07-02T09:28:47;7.47;;;4.95;;
12703;SDS011;6416;52.182;7.650;2023-07-02T09:31:13;6.68;;;4.80;;
12703;SDS011;6416;52.182;7.650;2023-07-02T09:33:38;7.38;;;4.72;;
12703;SDS011;6416;52.182;7.650;2023-07-02T09:36:04;8.07;;;5.25;;
12703;SDS011;6416;52.182;7.650;2023-07-02T09:38:30;6.55;;;4.65;;
12703;SDS011;6416;52.182;7.650;2023-07-02T09:40:56;6.25;;;4.80;;
12703;SDS011;6416;52.182;7.650;2023-07-02T09:43:22;6.70;;;4.57;;
12703;SDS011;6416;52.182;7.650;2023-07-02T09:45:49;6.95;;;4.85;;
12703;SDS011;6416;52.182;7.650;2023-07-02T09:48:16;7.78;;;5.13;;
12703;SDS011;6416;52.182;7.650;2023-07-02T09:50:45;8.77;;;5.25;;
12703;SDS011;6416;52.182;7.650;2023-07-02T09:53:13;7.55;;;4.88;;
12703;SDS011;6416;52.182;7.650;2023-07-02T09:55:39;9.60;;;5.35;;
12703;SDS011;6416;52.182;7.650;2023-07-02T09:58:06;7.82;;;5.13;;
12703;SDS011;6416;52.182;7.650;2023-07-02T10:00:32;13.57;;;5.22;;
12703;SDS011;6416;52.182;7.650;2023-07-02T10:02:58;6.68;;;5.03;;
12703;SDS011;6416;52.182;7.650;2023-07-02T10:05:30;8.52;;;4.63;;
12703;SDS011;6416;52.182;7.650;2023-07-02T10:07:58;5.70;;;5.10;;
12703;SDS011;6416;52.182;7.650;2023-07-02T10:10:36;9.98;;;5.13;;
12703;SDS011;6416;52.182;7.650;2023-07-02T10:13:02;7.32;;;4.63;;
12703;SDS011;6416;52.182;7.650;2023-07-02T10:15:28;8.27;;;4.88;;
12703;SDS011;6416;52.182;7.650;2023-07-02T10:17:55;6.60;;;4.60;;
12703;SDS011;6416;52.182;7.650;2023-07-02T10:20:30;7.10;;;4.85;;
12703;SDS011;6416;52.182;7.650;2023-07-02T10:23:06;6.18;;;4.70;;
12703;SDS011;6416;52.182;7.650;2023-07-02T10:25:36;5.97;;;4.50;;
12703;SDS011;6416;52.182;7.650;2023-07-02T10:28:19;5.70;;;4.20;;
12703;SDS011;6416;52.182;7.650;2023-07-02T10:30:46;4.43;;;3.60;;
12703;SDS011;6416;52.182;7.650;2023-07-02T10:33:12;5.10;;;3.92;;
12703;SDS011;6416;52.182;7.650;2023-07-02T10:35:42;6.68;;;4.63;;
12703;SDS011;6416;52.182;7.650;2023-07-02T10:38:17;9.68;;;5.43;;
12703;SDS011;6416;52.182;7.650;2023-07-02T10:40:44;6.00;;;4.18;;
12703;SDS011;6416;52.182;7.650;2023-07-02T10:43:10;6.45;;;4.68;;
12703;SDS011;6416;52.182;7.650;2023-07-02T10:45:36;6.45;;;4.90;;
12703;SDS011;6416;52.182;7.650;2023-07-02T10:48:02;7.47;;;4.85;;
12703;SDS011;6416;52.182;7.650;2023-07-02T10:50:29;6.72;;;4.57;;
12703;SDS011;6416;52.182;7.650;2023-07-02T10:52:55;5.53;;;3.88;;
12703;SDS011;6416;52.182;7.650;2023-07-02T10:55:22;5.57;;;4.10;;
12703;SDS011;6416;52.182;7.650;2023-07-02T10:57:48;4.68;;;4.13;;
12703;SDS011;6416;52.182;7.650;2023-07-02T11:00:15;7.60;;;4.57;;
12703;SDS011;6416;52.182;7.650;2023-07-02T11:02:40;6.35;;;4.18;;
12703;SDS011;6416;52.182;7.650;2023-07-02T11:05:06;6.70;;;4.65;;
12703;SDS011;6416;52.182;7.650;2023-07-02T11:07:33;5.15;;;4.18;;
12703;SDS011;6416;52.182;7.650;2023-07-02T11:09:58;7.30;;;4.22;;
12703;SDS011;6416;52.182;7.650;2023-07-02T11:12:30;6.05;;;3.78;;
12703;SDS011;6416;52.182;7.650;2023-07-02T11:15:09;5.45;;;4.07;;
12703;SDS011;6416;52.182;7.650;2023-07-02T11:17:35;5.15;;;3.63;;
12703;SDS011;6416;52.182;7.650;2023-07-02T11:20:01;5.78;;;4.07;;
12703;SDS011;6416;52.182;7.650;2023-07-02T11:22:32;5.22;;;3.83;;
12703;SDS011;6416;52.182;7.650;2023-07-02T11:25:11;4.90;;;3.72;;
12703;SDS011;6416;52.182;7.650;2023-07-02T11:27:38;7.50;;;4.35;;
12703;SDS011;6416;52.182;7.650;2023-07-02T11:30:03;7.03;;;4.20;;
12703;SDS011;6416;52.182;7.650;2023-07-02T11:32:29;5.95;;;4.00;;
12703;SDS011;6416;52.182;7.650;2023-07-02T11:34:55;6.38;;;4.28;;
12703;SDS011;6416;52.182;7.650;2023-07-02T11:37:21;6.28;;;3.97;;
12703;SDS011;6416;52.182;7.650;2023-07-02T11:39:46;6.57;;;4.60;;
12703;SDS011;6416;52.182;7.650;2023-07-02T11:42:12;9.00;;;4.47;;
12703;SDS011;6416;52.182;7.650;2023-07-02T11:44:37;5.40;;;3.92;;
12703;SDS011;6416;52.182;7.650;2023-07-02T11:47:03;7.68;;;3.58;;
12703;SDS011;6416;52.182;7.650;2023-07-02T11:49:30;6.00;;;3.72;;
12703;SDS011;6416;52.182;7.650;2023-07-02T11:51:55;7.47;;;3.80;;
12703;SDS011;6416;52.182;7.650;2023-07-02T11:54:20;6.38;;;3.83;;
12703;SDS011;6416;52.182;7.650;2023-07-02T11:56:46;6.07;;;3.95;;
12703;SDS011;6416;52.182;7.650;2023-07-02T11:59:13;4.70;;;3.10;;
12703;SDS011;6416;52.182;7.650;2023-07-02T12:01:39;6.10;;;3.88;;
12703;SDS011;6416;52.182;7.650;2023-07-02T12:04:04;5.85;;;3.83;;
12703;SDS011;6416;52.182;7.650;2023-07-02T12:06:30;8.45;;;3.60;;
12703;SDS011;6416;52.182;7.650;2023-07-02T12:08:55;4.25;;;3.63;;
12703;SDS011;6416;52.182;7.650;2023-07-02T12:11:21;5.10;;;3.80;;
12703;SDS011;6416;52.182;7.650;2023-07-02T12:13:46;6.13;;;4.10;;
12703;SDS011;6416;52.182;7.650;2023-07-02T12:16:12;5.82;;;3.63;;
12703;SDS011;6416;52.182;7.650;2023-07-02T12:18:37;6.72;;;4.25;;
12703;SDS011;6416;52.182;7.650;2023-07-02T12:21:03;6.25;;;3.50;;
12703;SDS011;6416;52.182;7.650;2023-07-02T12:23:28;4.57;;;3.72;;
12703;SDS011;6416;52.182;7.650;2023-07-02T12:25:54;5.60;;;3.45;;
12703;SDS011;6416;52.182;7.650;2023-07-02T12:28:19;5.40;;;4.00;;
12703;SDS011;6416;52.182;7.650;2023-07-02T12:30:45;3.95;;;3.47;;
12703;SDS011;6416;52.182;7.650;2023-07-02T12:33:10;5.05;;;3.40;;
12703;SDS011;6416;52.182;7.650;2023-07-02T12:35:36;6.82;;;3.95;;
12703;SDS011;6416;52.182;7.650;2023-07-02T12:38:01;5.82;;;3.65;;
12703;SDS011;6416;52.182;7.650;2023-07-02T12:40:27;3.85;;;2.75;;
12703;SDS011;6416;52.182;7.650;2023-07-02T12:42:52;3.80;;;3.10;;
12703;SDS011;6416;52.182;7.650;2023-07-02T12:45:17;5.18;;;3.08;;
12703;SDS011;6416;52.182;7.650;2023-07-02T12:47:43;3.60;;;2.80;;
12703;SDS011;6416;52.182;7.650;2023-07-02T12:50:09;4.55;;;3.17;;
12703;SDS011;6416;52.182;7.650;2023-07-02T12:52:35;4.75;;;3.20;;
12703;SDS011;6416;52.182;7.650;2023-07-02T12:55:01;5.10;;;3.40;;
12703;SDS011;6416;52.182;7.650;2023-07-02T12:57:27;3.85;;;3.10;;
12703;SDS011;6416;52.182;7.650;2023-07-02T12:59:53;4.53;;;3.53;;
12703;SDS011;6416;52.182;7.650;2023-07-02T13:02:20;4.35;;;3.17;;
12703;SDS011;6416;52.182;7.650;2023-07-02T13:04:46;6.22;;;3.55;;
12703;SDS011;6416;52.182;7.650;2023-07-02T13:07:11;5.20;;;3.38;;
12703;SDS011;6416;52.182;7.650;2023-07-02T13:09:37;6.55;;;3.72;;
12703;SDS011;6416;52.182;7.650;2023-07-02T13:12:02;7.03;;;3.95;;
12703;SDS011;6416;52.182;7.650;2023-07-02T13:14:28;3.92;;;3.50;;
12703;SDS011;6416;52.182;7.650;2023-07-02T13:16:53;5.78;;;3.50;;
12703;SDS011;6416;52.182;7.650;2023-07-02T13:19:19;5.05;;;3.17;;
12703;SDS011;6416;52.182;7.650;2023-07-02T13:21:44;5.50;;;3.53;;
12703;SDS011;6416;52.182;7.650;2023-07-02T13:24:10;8.27;;;3.47;;
12703;SDS011;6416;52.182;7.650;2023-07-02T13:26:36;4.38;;;3.42;;
12703;SDS011;6416;52.182;7.650;2023-07-02T13:29:01;6.13;;;3.55;;
12703;SDS011;6416;52.182;7.650;2023-07-02T13:31:27;4.88;;;3.55;;
12703;SDS011;6416;52.182;7.650;2023-07-02T13:33:55;7.60;;;3.90;;
12703;SDS011;6416;52.182;7.650;2023-07-02T13:36:21;5.30;;;3.83;;
12703;SDS011;6416;52.182;7.650;2023-07-02T13:38:46;5.85;;;3.72;;
12703;SDS011;6416;52.182;7.650;2023-07-02T13:41:12;5.80;;;2.90;;
12703;SDS011;6416;52.182;7.650;2023-07-02T13:43:37;4.97;;;3.70;;
12703;SDS011;6416;52.182;7.650;2023-07-02T13:46:03;4.75;;;3.13;;
12703;SDS011;6416;52.182;7.650;2023-07-02T13:48:28;3.92;;;3.10;;
12703;SDS011;6416;52.182;7.650;2023-07-02T13:50:54;5.30;;;3.80;;
12703;SDS011;6416;52.182;7.650;2023-07-02T13:53:19;5.78;;;3.17;;
12703;SDS011;6416;52.182;7.650;2023-07-02T13:55:45;4.68;;;3.70;;
12703;SDS011;6416;52.182;7.650;2023-07-02T13:58:10;3.53;;;2.85;;
12703;SDS011;6416;52.182;7.650;2023-07-02T14:00:36;4.57;;;3.50;;
12703;SDS011;6416;52.182;7.650;2023-07-02T14:03:02;5.25;;;3.72;;
12703;SDS011;6416;52.182;7.650;2023-07-02T14:05:27;6.88;;;3.65;;
12703;SDS011;6416;52.182;7.650;2023-07-02T14:07:53;4.13;;;3.35;;
12703;SDS011;6416;52.182;7.650;2023-07-02T14:10:19;5.47;;;3.45;;
12703;SDS011;6416;52.182;7.650;2023-07-02T14:12:44;6.53;;;3.47;;
12703;SDS011;6416;52.182;7.650;2023-07-02T14:15:10;3.78;;;2.65;;
12703;SDS011;6416;52.182;7.650;2023-07-02T14:17:35;3.17;;;2.88;;
12703;SDS011;6416;52.182;7.650;2023-07-02T14:20:01;5.00;;;3.47;;
12703;SDS011;6416;52.182;7.650;2023-07-02T14:22:28;5.15;;;3.08;;
12703;SDS011;6416;52.182;7.650;2023-07-02T14:24:53;4.07;;;3.17;;
12703;SDS011;6416;52.182;7.650;2023-07-02T14:27:19;5.50;;;3.65;;
12703;SDS011;6416;52.182;7.650;2023-07-02T14:29:44;4.97;;;3.20;;
12703;SDS011;6416;52.182;7.650;2023-07-02T14:32:09;4.13;;;2.88;;
12703;SDS011;6416;52.182;7.650;2023-07-02T14:34:35;5.32;;;3.55;;
12703;SDS011;6416;52.182;7.650;2023-07-02T14:37:01;6.13;;;3.20;;
12703;SDS011;6416;52.182;7.650;2023-07-02T14:39:27;7.40;;;3.22;;
12703;SDS011;6416;52.182;7.650;2023-07-02T14:41:53;4.15;;;2.92;;
12703;SDS011;6416;52.182;7.650;2023-07-02T14:44:18;3.72;;;3.10;;
12703;SDS011;6416;52.182;7.650;2023-07-02T14:46:44;4.75;;;3.38;;
12703;SDS011;6416;52.182;7.650;2023-07-02T14:49:09;4.40;;;3.25;;
12703;SDS011;6416;52.182;7.650;2023-07-02T14:51:35;4.03;;;2.85;;
12703;SDS011;6416;52.182;7.650;2023-07-02T14:54:01;4.18;;;3.42;;
12703;SDS011;6416;52.182;7.650;2023-07-02T14:56:26;7.82;;;3.65;;